»·PEaware :: N7732J KSBA-KTOA

N7732J :: KSBA-KTOA

FLIGHT INFORMATION

Flight Status: Arrived
Operator: Privately registered:
United States
More flights under this callsign
Pilot: Scott G. (88)
Aircraft: BEECH AIRCRAFT BARON
(BE58)
More flights by this aircraft type
Origin: KSBA Santa Barbara Mun
United States
Destination: KTOA Zamperini
United States
More flights between these airports :: More routes between these airports
Route: KWANG VTU DCT
File this flight plan on PilotEdge
Remarks:
Altitude:
(Current/Filed)
9,500ft
Speed:
(Current/Filed)
180kts
Departed: 04-Dec-18 01:24 PM
Arrived: 04-Dec-18 02:20 PM
Distance/Time
Traveled:
83nm/0:56
Distance/Time
To Go:
Arrived

Flight Plot

Page will automatically refresh every two minutes.

Flight plan parsing failed; only flown route is shown


Map Options




Map Legend


Flown Route
Filed Route
Departure Airport
Arrival Airport
Navaid (VOR, NDB)
Fix

Horizontal Profiles

Position Reports

Time Latitude Longitude Heading Altitude Ground
Speed
04-Dec-18 12:52 34.432566 -119.835099 71 14ft 0kts
04-Dec-18 12:53 34.432566 -119.835099 71 14ft 0kts
04-Dec-18 12:54 34.432566 -119.835099 71 14ft 0kts
04-Dec-18 12:55 34.432566 -119.835099 71 14ft 0kts
04-Dec-18 12:56 34.432566 -119.835099 71 14ft 0kts
04-Dec-18 12:57 34.432566 -119.835099 71 14ft 0kts
04-Dec-18 12:58 34.432566 -119.835099 71 14ft 0kts
04-Dec-18 12:59 34.432566 -119.835099 72 14ft 0kts
04-Dec-18 13:00 34.432566 -119.835099 71 14ft 0kts
04-Dec-18 13:01 34.432566 -119.835099 71 14ft 0kts
04-Dec-18 13:02 34.432566 -119.835099 71 14ft 0kts
04-Dec-18 13:03 34.432566 -119.835099 71 14ft 0kts
04-Dec-18 13:04 34.432566 -119.835099 71 14ft 0kts
04-Dec-18 13:05 34.432566 -119.835099 71 14ft 0kts
04-Dec-18 13:06 34.432566 -119.835099 71 14ft 0kts
04-Dec-18 13:07 34.432566 -119.835099 71 14ft 0kts
04-Dec-18 13:08 34.432566 -119.835099 71 14ft 0kts
04-Dec-18 13:09 34.432566 -119.835099 71 14ft 0kts
04-Dec-18 13:10 34.432566 -119.835099 71 14ft 0kts
04-Dec-18 13:11 34.432566 -119.835099 71 14ft 0kts
04-Dec-18 13:12 34.432566 -119.835099 71 14ft 0kts
04-Dec-18 13:13 34.432566 -119.835099 72 14ft 0kts
04-Dec-18 13:14 34.432574 -119.835054 84 14ft 1kts
04-Dec-18 13:15 34.432169 -119.835418 177 14ft 0kts
04-Dec-18 13:16 34.431254 -119.837947 250 14ft 22kts
04-Dec-18 13:17 34.430778 -119.839839 192 14ft 0kts
04-Dec-18 13:18 34.430778 -119.839839 192 14ft 0kts
04-Dec-18 13:19 34.430778 -119.839839 192 14ft 0kts
04-Dec-18 13:20 34.430737 -119.839869 226 14ft 3kts
04-Dec-18 13:21 34.430316 -119.840230 164 14ft 0kts
04-Dec-18 13:22 34.430299 -119.840224 164 14ft 0kts
04-Dec-18 13:24 34.414327 -119.834614 159 707ft 94kts
04-Dec-18 13:25 34.381169 -119.825788 165 1471ft 146kts
04-Dec-18 13:26 34.338174 -119.814134 164 1454ft 158kts
04-Dec-18 13:27 34.294732 -119.802167 164 1453ft 159kts
04-Dec-18 13:28 34.272615 -119.761930 103 2026ft 148kts
04-Dec-18 13:29 34.270357 -119.710641 84 2917ft 155kts
04-Dec-18 13:30 34.278068 -119.660186 84 3952ft 148kts
04-Dec-18 13:31 34.285748 -119.611520 85 4960ft 146kts
04-Dec-18 13:32 34.293369 -119.563481 85 5978ft 142kts
04-Dec-18 13:33 34.300536 -119.518684 86 6985ft 141kts
04-Dec-18 13:34 34.307971 -119.471948 87 7961ft 142kts
04-Dec-18 13:35 34.315489 -119.424468 88 8900ft 144kts
04-Dec-18 13:36 34.323177 -119.375578 88 9531ft 159kts
04-Dec-18 13:37 34.305068 -119.335520 162 9533ft 156kts
04-Dec-18 13:38 34.266181 -119.310359 141 9531ft 162kts
04-Dec-18 13:39 34.236755 -119.268316 131 9531ft 165kts
04-Dec-18 13:40 34.210678 -119.222644 129 9532ft 164kts
04-Dec-18 13:41 34.185553 -119.177218 128 9534ft 164kts
04-Dec-18 13:41 34.164352 -119.138742 129 9535ft 165kts
04-Dec-18 13:43 34.134534 -119.084635 129 9537ft 166kts
04-Dec-18 13:43 34.111160 -119.048048 145 9539ft 162kts
04-Dec-18 13:44 34.075330 -119.015416 148 9538ft 163kts
04-Dec-18 13:46 34.032221 -118.978042 148 9538ft 164kts
04-Dec-18 13:46 34.001219 -118.951351 148 9538ft 164kts
04-Dec-18 13:48 33.957654 -118.913903 147 9538ft 165kts
04-Dec-18 13:48 33.926406 -118.887097 146 9538ft 165kts
04-Dec-18 13:49 33.888614 -118.854672 146 9543ft 166kts
04-Dec-18 13:50 33.847728 -118.819625 150 9546ft 185kts
04-Dec-18 13:51 33.803308 -118.781629 150 9545ft 190kts
04-Dec-18 13:52 33.757407 -118.742398 150 9552ft 193kts
04-Dec-18 13:53 33.713752 -118.705108 147 9509ft 183kts
04-Dec-18 13:54 33.670557 -118.668370 147 9061ft 197kts
04-Dec-18 13:55 33.623122 -118.627796 146 7784ft 209kts
04-Dec-18 13:56 33.573789 -118.586138 146 6549ft 209kts
04-Dec-18 13:57 33.553523 -118.526049 74 5280ft 209kts
04-Dec-18 13:58 33.575258 -118.464232 97 4051ft 197kts
04-Dec-18 13:59 33.578879 -118.403083 84 2912ft 189kts
04-Dec-18 14:00 33.585192 -118.344227 84 2463ft 155kts
04-Dec-18 14:01 33.590198 -118.296990 83 2439ft 144kts
04-Dec-18 14:02 33.593121 -118.250844 99 2254ft 147kts
04-Dec-18 14:03 33.574136 -118.211627 170 2254ft 157kts
04-Dec-18 14:04 33.545429 -118.247853 276 2250ft 174kts
04-Dec-18 14:05 33.572090 -118.294745 329 2259ft 176kts
04-Dec-18 14:06 33.618696 -118.297766 17 2144ft 177kts
04-Dec-18 14:07 33.668729 -118.303901 349 1827ft 181kts
04-Dec-18 14:08 33.717414 -118.316785 349 1834ft 179kts
04-Dec-18 14:09 33.760447 -118.336759 304 1834ft 165kts
04-Dec-18 14:10 33.747432 -118.381035 192 1837ft 154kts
04-Dec-18 14:11 33.705769 -118.387941 223 1741ft 158kts
04-Dec-18 14:12 33.715414 -118.405218 66 1523ft 150kts
04-Dec-18 14:13 33.731682 -118.359648 80 1502ft 147kts
04-Dec-18 14:14 33.740501 -118.311717 62 1503ft 148kts
04-Dec-18 14:15 33.776676 -118.308897 311 1404ft 157kts
04-Dec-18 14:16 33.796957 -118.346937 309 975ft 128kts
04-Dec-18 14:17 33.820306 -118.373264 48 525ft 106kts
04-Dec-18 14:18 33.809100 -118.347319 126 164ft 85kts
04-Dec-18 14:19 33.800607 -118.335904 149 104ft 0kts
04-Dec-18 14:20 33.800114 -118.335657 170 104ft 13kts
04-Dec-18 14:21 33.799296 -118.337334 235 104ft 8kts
04-Dec-18 14:22 33.800641 -118.340084 264 104ft 6kts
04-Dec-18 14:23 33.801079 -118.340638 35 104ft 0kts

Navigation Log

Ident Type
Flight plan parsing failed, navigation log unavailable